sensor_id;sensor_type;location;lat;lon;timestamp;P1;durP1;ratioP1;P2;durP2;ratioP2
53875;SDS011;39789;53.216;5.624;2023-11-21T00:00:54;4.68;;;2.50;;
53875;SDS011;39789;53.216;5.624;2023-11-21T00:03:20;6.55;;;2.30;;
53875;SDS011;39789;53.216;5.624;2023-11-21T00:05:48;3.53;;;2.35;;
53875;SDS011;39789;53.216;5.624;2023-11-21T00:08:14;9.40;;;2.50;;
53875;SDS011;39789;53.216;5.624;2023-11-21T00:10:39;3.92;;;2.45;;
53875;SDS011;39789;53.216;5.624;2023-11-21T00:13:05;6.57;;;2.10;;
53875;SDS011;39789;53.216;5.624;2023-11-21T00:15:30;5.00;;;2.03;;
53875;SDS011;39789;53.216;5.624;2023-11-21T00:17:56;5.10;;;2.58;;
53875;SDS011;39789;53.216;5.624;2023-11-21T00:20:22;6.97;;;2.20;;
53875;SDS011;39789;53.216;5.624;2023-11-21T00:22:48;7.43;;;2.47;;
53875;SDS011;39789;53.216;5.624;2023-11-21T00:25:13;7.82;;;2.55;;
53875;SDS011;39789;53.216;5.624;2023-11-21T00:27:41;8.13;;;3.08;;
53875;SDS011;39789;53.216;5.624;2023-11-21T00:30:07;6.22;;;2.80;;
53875;SDS011;39789;53.216;5.624;2023-11-21T00:32:35;4.10;;;2.17;;
53875;SDS011;39789;53.216;5.624;2023-11-21T00:35:01;4.93;;;2.03;;
53875;SDS011;39789;53.216;5.624;2023-11-21T00:37:27;3.63;;;1.80;;
53875;SDS011;39789;53.216;5.624;2023-11-21T00:39:52;6.22;;;1.80;;
53875;SDS011;39789;53.216;5.624;2023-11-21T00:42:18;8.38;;;2.20;;
53875;SDS011;39789;53.216;5.624;2023-11-21T00:44:44;9.80;;;2.65;;
53875;SDS011;39789;53.216;5.624;2023-11-21T00:47:09;7.90;;;2.22;;
53875;SDS011;39789;53.216;5.624;2023-11-21T00:49:35;7.40;;;2.08;;
53875;SDS011;39789;53.216;5.624;2023-11-21T00:52:01;11.48;;;3.67;;
53875;SDS011;39789;53.216;5.624;2023-11-21T00:54:27;9.90;;;3.50;;
53875;SDS011;39789;53.216;5.624;2023-11-21T00:56:53;11.35;;;3.85;;
53875;SDS011;39789;53.216;5.624;2023-11-21T00:59:18;13.68;;;4.20;;
53875;SDS011;39789;53.216;5.624;2023-11-21T01:01:44;11.60;;;4.22;;
53875;SDS011;39789;53.216;5.624;2023-11-21T01:04:09;10.20;;;4.35;;
53875;SDS011;39789;53.216;5.624;2023-11-21T01:06:36;11.73;;;5.55;;
53875;SDS011;39789;53.216;5.624;2023-11-21T01:09:01;14.52;;;5.93;;
53875;SDS011;39789;53.216;5.624;2023-11-21T01:11:33;14.27;;;6.22;;
53875;SDS011;39789;53.216;5.624;2023-11-21T01:14:05;14.95;;;5.93;;
53875;SDS011;39789;53.216;5.624;2023-11-21T01:16:33;11.32;;;4.82;;
53875;SDS011;39789;53.216;5.624;2023-11-21T01:18:59;13.52;;;5.40;;
53875;SDS011;39789;53.216;5.624;2023-11-21T01:21:26;14.38;;;5.28;;
53875;SDS011;39789;53.216;5.624;2023-11-21T01:23:53;14.65;;;5.40;;
53875;SDS011;39789;53.216;5.624;2023-11-21T01:26:21;11.60;;;4.90;;
53875;SDS011;39789;53.216;5.624;2023-11-21T01:28:46;15.68;;;4.63;;
53875;SDS011;39789;53.216;5.624;2023-11-21T01:31:14;12.23;;;4.72;;
53875;SDS011;39789;53.216;5.624;2023-11-21T01:33:40;12.10;;;3.85;;
53875;SDS011;39789;53.216;5.624;2023-11-21T01:36:06;13.20;;;5.10;;
53875;SDS011;39789;53.216;5.624;2023-11-21T01:38:32;12.05;;;3.10;;
53875;SDS011;39789;53.216;5.624;2023-11-21T01:40:58;10.90;;;3.25;;
53875;SDS011;39789;53.216;5.624;2023-11-21T01:43:26;5.93;;;2.03;;
53875;SDS011;39789;53.216;5.624;2023-11-21T01:45:53;8.45;;;2.15;;
53875;SDS011;39789;53.216;5.624;2023-11-21T01:48:22;7.10;;;2.30;;
53875;SDS011;39789;53.216;5.624;2023-11-21T01:50:48;10.95;;;3.10;;
53875;SDS011;39789;53.216;5.624;2023-11-21T01:53:13;9.18;;;2.50;;
53875;SDS011;39789;53.216;5.624;2023-11-21T01:55:40;8.98;;;2.80;;
53875;SDS011;39789;53.216;5.624;2023-11-21T01:58:07;11.38;;;3.72;;
53875;SDS011;39789;53.216;5.624;2023-11-21T02:00:33;13.73;;;3.63;;
53875;SDS011;39789;53.216;5.624;2023-11-21T02:02:59;17.73;;;3.92;;
53875;SDS011;39789;53.216;5.624;2023-11-21T02:05:24;13.20;;;4.32;;
53875;SDS011;39789;53.216;5.624;2023-11-21T02:07:51;10.82;;;3.95;;
53875;SDS011;39789;53.216;5.624;2023-11-21T02:10:17;9.20;;;3.05;;
53875;SDS011;39789;53.216;5.624;2023-11-21T02:12:48;11.13;;;2.85;;
53875;SDS011;39789;53.216;5.624;2023-11-21T02:15:17;15.18;;;2.50;;
53875;SDS011;39789;53.216;5.624;2023-11-21T02:17:46;9.20;;;2.75;;
53875;SDS011;39789;53.216;5.624;2023-11-21T02:20:16;12.70;;;3.53;;
53875;SDS011;39789;53.216;5.624;2023-11-21T02:22:43;14.27;;;3.35;;
53875;SDS011;39789;53.216;5.624;2023-11-21T02:25:13;9.80;;;3.03;;
53875;SDS011;39789;53.216;5.624;2023-11-21T02:27:39;12.60;;;4.00;;
53875;SDS011;39789;53.216;5.624;2023-11-21T02:30:05;8.77;;;3.38;;
53875;SDS011;39789;53.216;5.624;2023-11-21T02:32:32;23.55;;;5.07;;
53875;SDS011;39789;53.216;5.624;2023-11-21T02:34:59;20.50;;;6.60;;
53875;SDS011;39789;53.216;5.624;2023-11-21T02:37:26;13.07;;;5.45;;
53875;SDS011;39789;53.216;5.624;2023-11-21T02:39:52;15.13;;;4.50;;
53875;SDS011;39789;53.216;5.624;2023-11-21T02:42:18;13.43;;;5.18;;
53875;SDS011;39789;53.216;5.624;2023-11-21T02:44:43;15.18;;;4.50;;
53875;SDS011;39789;53.216;5.624;2023-11-21T02:47:09;11.95;;;3.78;;
53875;SDS011;39789;53.216;5.624;2023-11-21T02:49:35;11.77;;;3.88;;
53875;SDS011;39789;53.216;5.624;2023-11-21T02:52:01;8.60;;;3.13;;
53875;SDS011;39789;53.216;5.624;2023-11-21T02:54:27;11.20;;;3.65;;
53875;SDS011;39789;53.216;5.624;2023-11-21T02:56:53;11.77;;;3.63;;
53875;SDS011;39789;53.216;5.624;2023-11-21T02:59:18;8.95;;;3.28;;
53875;SDS011;39789;53.216;5.624;2023-11-21T03:01:44;15.02;;;3.92;;
53875;SDS011;39789;53.216;5.624;2023-11-21T03:04:11;13.65;;;3.85;;
53875;SDS011;39789;53.216;5.624;2023-11-21T03:06:40;16.17;;;3.15;;
53875;SDS011;39789;53.216;5.624;2023-11-21T03:09:06;7.30;;;3.22;;
53875;SDS011;39789;53.216;5.624;2023-11-21T03:11:32;14.38;;;3.70;;
53875;SDS011;39789;53.216;5.624;2023-11-21T03:13:57;9.00;;;3.50;;
53875;SDS011;39789;53.216;5.624;2023-11-21T03:16:23;13.13;;;4.18;;
53875;SDS011;39789;53.216;5.624;2023-11-21T03:18:48;13.15;;;4.05;;
53875;SDS011;39789;53.216;5.624;2023-11-21T03:21:17;16.83;;;3.42;;
53875;SDS011;39789;53.216;5.624;2023-11-21T03:23:42;8.55;;;3.50;;
53875;SDS011;39789;53.216;5.624;2023-11-21T03:26:11;16.27;;;4.00;;
53875;SDS011;39789;53.216;5.624;2023-11-21T03:28:38;16.88;;;3.25;;
53875;SDS011;39789;53.216;5.624;2023-11-21T03:31:04;16.70;;;3.58;;
53875;SDS011;39789;53.216;5.624;2023-11-21T03:33:31;13.75;;;3.75;;
53875;SDS011;39789;53.216;5.624;2023-11-21T03:35:57;11.27;;;4.30;;
53875;SDS011;39789;53.216;5.624;2023-11-21T03:38:23;17.60;;;6.57;;
53875;SDS011;39789;53.216;5.624;2023-11-21T03:40:49;16.33;;;5.38;;
53875;SDS011;39789;53.216;5.624;2023-11-21T03:43:15;16.92;;;7.28;;
53875;SDS011;39789;53.216;5.624;2023-11-21T03:45:41;17.27;;;6.35;;
53875;SDS011;39789;53.216;5.624;2023-11-21T03:48:07;24.25;;;7.03;;
53875;SDS011;39789;53.216;5.624;2023-11-21T03:50:34;17.95;;;7.68;;
53875;SDS011;39789;53.216;5.624;2023-11-21T03:53:00;18.67;;;7.78;;
53875;SDS011;39789;53.216;5.624;2023-11-21T03:55:25;20.88;;;8.13;;
53875;SDS011;39789;53.216;5.624;2023-11-21T03:57:51;22.65;;;9.35;;
53875;SDS011;39789;53.216;5.624;2023-11-21T04:00:17;20.50;;;8.73;;
53875;SDS011;39789;53.216;5.624;2023-11-21T04:02:45;21.60;;;8.75;;
53875;SDS011;39789;53.216;5.624;2023-11-21T04:05:11;28.58;;;8.73;;
53875;SDS011;39789;53.216;5.624;2023-11-21T04:07:37;18.63;;;7.53;;
53875;SDS011;39789;53.216;5.624;2023-11-21T04:10:04;21.98;;;8.52;;
53875;SDS011;39789;53.216;5.624;2023-11-21T04:12:33;23.02;;;8.57;;
53875;SDS011;39789;53.216;5.624;2023-11-21T04:14:58;22.67;;;7.82;;
53875;SDS011;39789;53.216;5.624;2023-11-21T04:17:24;19.75;;;7.80;;
53875;SDS011;39789;53.216;5.624;2023-11-21T04:19:49;18.38;;;7.25;;
53875;SDS011;39789;53.216;5.624;2023-11-21T04:22:15;20.83;;;7.43;;
53875;SDS011;39789;53.216;5.624;2023-11-21T04:24:41;20.95;;;7.80;;
53875;SDS011;39789;53.216;5.624;2023-11-21T04:27:06;27.17;;;7.53;;
53875;SDS011;39789;53.216;5.624;2023-11-21T04:29:32;18.98;;;6.70;;
53875;SDS011;39789;53.216;5.624;2023-11-21T04:31:58;21.67;;;7.32;;
53875;SDS011;39789;53.216;5.624;2023-11-21T04:34:24;14.43;;;6.43;;
53875;SDS011;39789;53.216;5.624;2023-11-21T04:36:50;20.15;;;6.80;;
53875;SDS011;39789;53.216;5.624;2023-11-21T04:39:15;18.98;;;6.63;;
53875;SDS011;39789;53.216;5.624;2023-11-21T04:41:41;21.58;;;7.32;;
53875;SDS011;39789;53.216;5.624;2023-11-21T04:44:07;16.15;;;6.75;;
53875;SDS011;39789;53.216;5.624;2023-11-21T04:46:33;19.40;;;6.57;;
53875;SDS011;39789;53.216;5.624;2023-11-21T04:48:58;22.50;;;6.53;;
53875;SDS011;39789;53.216;5.624;2023-11-21T04:51:24;22.48;;;6.32;;
53875;SDS011;39789;53.216;5.624;2023-11-21T04:53:50;31.45;;;6.05;;
53875;SDS011;39789;53.216;5.624;2023-11-21T04:56:15;27.83;;;7.20;;
53875;SDS011;39789;53.216;5.624;2023-11-21T04:58:41;23.02;;;7.78;;
53875;SDS011;39789;53.216;5.624;2023-11-21T05:01:07;16.77;;;7.30;;
53875;SDS011;39789;53.216;5.624;2023-11-21T05:03:33;17.13;;;8.15;;
53875;SDS011;39789;53.216;5.624;2023-11-21T05:05:59;23.70;;;9.85;;
53875;SDS011;39789;53.216;5.624;2023-11-21T05:08:25;21.25;;;9.52;;
53875;SDS011;39789;53.216;5.624;2023-11-21T05:10:51;22.52;;;10.15;;
53875;SDS011;39789;53.216;5.624;2023-11-21T05:13:17;19.30;;;9.63;;
53875;SDS011;39789;53.216;5.624;2023-11-21T05:15:43;20.60;;;9.30;;
53875;SDS011;39789;53.216;5.624;2023-11-21T05:18:09;25.20;;;10.63;;
53875;SDS011;39789;53.216;5.624;2023-11-21T05:20:35;29.08;;;11.60;;
53875;SDS011;39789;53.216;5.624;2023-11-21T05:23:02;25.48;;;11.95;;
53875;SDS011;39789;53.216;5.624;2023-11-21T05:25:27;32.10;;;11.95;;
53875;SDS011;39789;53.216;5.624;2023-11-21T05:27:53;31.05;;;11.70;;
53875;SDS011;39789;53.216;5.624;2023-11-21T05:30:20;25.85;;;11.65;;
53875;SDS011;39789;53.216;5.624;2023-11-21T05:32:46;26.45;;;11.73;;
53875;SDS011;39789;53.216;5.624;2023-11-21T05:35:12;26.55;;;12.55;;
53875;SDS011;39789;53.216;5.624;2023-11-21T05:37:41;28.73;;;11.90;;
53875;SDS011;39789;53.216;5.624;2023-11-21T05:40:07;25.05;;;11.98;;
53875;SDS011;39789;53.216;5.624;2023-11-21T05:42:36;24.73;;;11.75;;
53875;SDS011;39789;53.216;5.624;2023-11-21T05:45:03;30.33;;;13.02;;
53875;SDS011;39789;53.216;5.624;2023-11-21T05:47:45;26.90;;;13.20;;
53875;SDS011;39789;53.216;5.624;2023-11-21T05:50:12;29.90;;;14.52;;
53875;SDS011;39789;53.216;5.624;2023-11-21T05:52:40;30.27;;;13.63;;
53875;SDS011;39789;53.216;5.624;2023-11-21T05:55:06;24.27;;;12.07;;
53875;SDS011;39789;53.216;5.624;2023-11-21T05:57:33;26.55;;;13.20;;
53875;SDS011;39789;53.216;5.624;2023-11-21T06:00:02;27.10;;;12.05;;
53875;SDS011;39789;53.216;5.624;2023-11-21T06:02:34;23.23;;;11.93;;
53875;SDS011;39789;53.216;5.624;2023-11-21T06:05:00;23.25;;;11.55;;
53875;SDS011;39789;53.216;5.624;2023-11-21T06:07:26;25.73;;;12.57;;
53875;SDS011;39789;53.216;5.624;2023-11-21T06:09:51;26.50;;;13.02;;
53875;SDS011;39789;53.216;5.624;2023-11-21T06:12:17;22.08;;;10.77;;
53875;SDS011;39789;53.216;5.624;2023-11-21T06:14:42;25.70;;;12.00;;
53875;SDS011;39789;53.216;5.624;2023-11-21T06:17:08;21.00;;;10.48;;
53875;SDS011;39789;53.216;5.624;2023-11-21T06:19:34;19.80;;;11.25;;
53875;SDS011;39789;53.216;5.624;2023-11-21T06:22:00;23.27;;;10.65;;
53875;SDS011;39789;53.216;5.624;2023-11-21T06:24:26;25.40;;;12.45;;
53875;SDS011;39789;53.216;5.624;2023-11-21T06:26:53;24.02;;;12.60;;
53875;SDS011;39789;53.216;5.624;2023-11-21T06:29:18;25.80;;;12.68;;
53875;SDS011;39789;53.216;5.624;2023-11-21T06:31:44;27.90;;;12.63;;
53875;SDS011;39789;53.216;5.624;2023-11-21T06:34:11;34.88;;;13.85;;
53875;SDS011;39789;53.216;5.624;2023-11-21T06:36:37;29.77;;;12.52;;
53875;SDS011;39789;53.216;5.624;2023-11-21T06:39:03;28.15;;;13.75;;
53875;SDS011;39789;53.216;5.624;2023-11-21T06:41:33;28.88;;;13.27;;
53875;SDS011;39789;53.216;5.624;2023-11-21T06:43:59;28.08;;;13.48;;
53875;SDS011;39789;53.216;5.624;2023-11-21T06:46:25;26.95;;;12.10;;
53875;SDS011;39789;53.216;5.624;2023-11-21T06:48:50;27.73;;;14.93;;
53875;SDS011;39789;53.216;5.624;2023-11-21T06:51:16;27.88;;;12.85;;
53875;SDS011;39789;53.216;5.624;2023-11-21T06:53:42;36.75;;;15.70;;
53875;SDS011;39789;53.216;5.624;2023-11-21T06:56:17;30.15;;;14.90;;
53875;SDS011;39789;53.216;5.624;2023-11-21T06:58:44;25.92;;;13.25;;
53875;SDS011;39789;53.216;5.624;2023-11-21T07:01:10;21.45;;;13.10;;
53875;SDS011;39789;53.216;5.624;2023-11-21T07:03:36;21.13;;;12.38;;
53875;SDS011;39789;53.216;5.624;2023-11-21T07:06:02;21.20;;;12.93;;
53875;SDS011;39789;53.216;5.624;2023-11-21T07:08:29;21.33;;;12.35;;
53875;SDS011;39789;53.216;5.624;2023-11-21T07:10:54;17.20;;;11.38;;
53875;SDS011;39789;53.216;5.624;2023-11-21T07:13:20;20.33;;;11.20;;
53875;SDS011;39789;53.216;5.624;2023-11-21T07:15:46;18.85;;;10.80;;
53875;SDS011;39789;53.216;5.624;2023-11-21T07:18:13;20.85;;;11.90;;
53875;SDS011;39789;53.216;5.624;2023-11-21T07:20:39;22.67;;;12.00;;
53875;SDS011;39789;53.216;5.624;2023-11-21T07:23:04;20.63;;;12.07;;
53875;SDS011;39789;53.216;5.624;2023-11-21T07:25:31;19.40;;;11.55;;
53875;SDS011;39789;53.216;5.624;2023-11-21T07:27:58;18.67;;;11.55;;
53875;SDS011;39789;53.216;5.624;2023-11-21T07:30:24;21.50;;;12.65;;
53875;SDS011;39789;53.216;5.624;2023-11-21T07:32:50;20.60;;;12.35;;
53875;SDS011;39789;53.216;5.624;2023-11-21T07:35:15;23.05;;;12.52;;
53875;SDS011;39789;53.216;5.624;2023-11-21T07:37:41;21.30;;;12.27;;
53875;SDS011;39789;53.216;5.624;2023-11-21T07:40:08;21.38;;;13.15;;
53875;SDS011;39789;53.216;5.624;2023-11-21T07:42:34;22.85;;;14.05;;
53875;SDS011;39789;53.216;5.624;2023-11-21T07:45:00;18.88;;;12.75;;
53875;SDS011;39789;53.216;5.624;2023-11-21T07:47:25;25.15;;;13.20;;
53875;SDS011;39789;53.216;5.624;2023-11-21T07:49:52;20.75;;;13.10;;
53875;SDS011;39789;53.216;5.624;2023-11-21T07:52:18;19.95;;;12.90;;
53875;SDS011;39789;53.216;5.624;2023-11-21T07:54:46;21.70;;;13.65;;
53875;SDS011;39789;53.216;5.624;2023-11-21T07:57:11;25.95;;;14.15;;
53875;SDS011;39789;53.216;5.624;2023-11-21T07:59:38;20.92;;;12.45;;
53875;SDS011;39789;53.216;5.624;2023-11-21T08:02:06;23.15;;;13.48;;
53875;SDS011;39789;53.216;5.624;2023-11-21T08:04:32;26.88;;;13.10;;
53875;SDS011;39789;53.216;5.624;2023-11-21T08:06:58;19.10;;;13.10;;
53875;SDS011;39789;53.216;5.624;2023-11-21T08:09:23;20.75;;;12.98;;
53875;SDS011;39789;53.216;5.624;2023-11-21T08:11:49;22.02;;;12.40;;
53875;SDS011;39789;53.216;5.624;2023-11-21T08:14:15;25.13;;;13.20;;
53875;SDS011;39789;53.216;5.624;2023-11-21T08:16:41;20.42;;;11.95;;
53875;SDS011;39789;53.216;5.624;2023-11-21T08:19:08;21.85;;;11.57;;
53875;SDS011;39789;53.216;5.624;2023-11-21T08:21:34;18.00;;;11.93;;
53875;SDS011;39789;53.216;5.624;2023-11-21T08:24:01;22.35;;;11.32;;
53875;SDS011;39789;53.216;5.624;2023-11-21T08:26:29;20.98;;;11.90;;
53875;SDS011;39789;53.216;5.624;2023-11-21T08:28:55;19.17;;;12.02;;
53875;SDS011;39789;53.216;5.624;2023-11-21T08:31:27;20.38;;;11.63;;
53875;SDS011;39789;53.216;5.624;2023-11-21T08:33:54;19.60;;;10.82;;
53875;SDS011;39789;53.216;5.624;2023-11-21T08:36:21;20.50;;;10.93;;
53875;SDS011;39789;53.216;5.624;2023-11-21T08:38:49;18.98;;;11.30;;
53875;SDS011;39789;53.216;5.624;2023-11-21T08:41:17;19.52;;;11.45;;
53875;SDS011;39789;53.216;5.624;2023-11-21T08:43:46;23.55;;;11.80;;
53875;SDS011;39789;53.216;5.624;2023-11-21T08:46:18;17.05;;;11.45;;
53875;SDS011;39789;53.216;5.624;2023-11-21T08:48:44;18.10;;;10.80;;
53875;SDS011;39789;53.216;5.624;2023-11-21T08:51:10;18.83;;;10.38;;
53875;SDS011;39789;53.216;5.624;2023-11-21T08:53:36;18.67;;;10.73;;
53875;SDS011;39789;53.216;5.624;2023-11-21T08:56:03;14.68;;;9.75;;
53875;SDS011;39789;53.216;5.624;2023-11-21T08:58:29;16.38;;;10.35;;
53875;SDS011;39789;53.216;5.624;2023-11-21T09:00:57;17.25;;;10.35;;
53875;SDS011;39789;53.216;5.624;2023-11-21T09:03:22;15.48;;;10.00;;
53875;SDS011;39789;53.216;5.624;2023-11-21T09:05:48;15.80;;;10.10;;
53875;SDS011;39789;53.216;5.624;2023-11-21T09:08:14;17.17;;;9.40;;
53875;SDS011;39789;53.216;5.624;2023-11-21T09:10:39;14.88;;;8.48;;
53875;SDS011;39789;53.216;5.624;2023-11-21T09:13:07;14.32;;;9.10;;
53875;SDS011;39789;53.216;5.624;2023-11-21T09:15:34;16.17;;;9.90;;
53875;SDS011;39789;53.216;5.624;2023-11-21T09:18:00;12.20;;;8.20;;
53875;SDS011;39789;53.216;5.624;2023-11-21T09:20:26;12.52;;;8.00;;
53875;SDS011;39789;53.216;5.624;2023-11-21T09:22:52;12.43;;;8.05;;
53875;SDS011;39789;53.216;5.624;2023-11-21T09:25:19;16.77;;;8.73;;
53875;SDS011;39789;53.216;5.624;2023-11-21T09:27:46;13.57;;;8.70;;
53875;SDS011;39789;53.216;5.624;2023-11-21T09:30:12;15.13;;;8.77;;
53875;SDS011;39789;53.216;5.624;2023-11-21T09:32:39;14.50;;;9.20;;
53875;SDS011;39789;53.216;5.624;2023-11-21T09:35:05;14.43;;;8.70;;
53875;SDS011;39789;53.216;5.624;2023-11-21T09:37:33;11.93;;;8.20;;
53875;SDS011;39789;53.216;5.624;2023-11-21T09:39:59;15.20;;;9.38;;
53875;SDS011;39789;53.216;5.624;2023-11-21T09:42:30;16.08;;;9.13;;
53875;SDS011;39789;53.216;5.624;2023-11-21T09:45:10;16.02;;;9.80;;
53875;SDS011;39789;53.216;5.624;2023-11-21T09:47:39;19.27;;;11.98;;
53875;SDS011;39789;53.216;5.624;2023-11-21T09:50:04;17.63;;;10.88;;
53875;SDS011;39789;53.216;5.624;2023-11-21T09:52:38;18.85;;;11.50;;
53875;SDS011;39789;53.216;5.624;2023-11-21T09:55:18;14.55;;;9.73;;
53875;SDS011;39789;53.216;5.624;2023-11-21T09:57:47;18.70;;;11.35;;
53875;SDS011;39789;53.216;5.624;2023-11-21T10:00:13;15.88;;;11.55;;
53875;SDS011;39789;53.216;5.624;2023-11-21T10:02:42;19.48;;;11.98;;
53875;SDS011;39789;53.216;5.624;2023-11-21T10:05:09;15.00;;;9.40;;
53875;SDS011;39789;53.216;5.624;2023-11-21T10:07:34;14.40;;;9.43;;
53875;SDS011;39789;53.216;5.624;2023-11-21T10:10:00;16.05;;;9.55;;
53875;SDS011;39789;53.216;5.624;2023-11-21T10:12:27;11.18;;;8.52;;
53875;SDS011;39789;53.216;5.624;2023-11-21T10:14:53;12.25;;;8.75;;
53875;SDS011;39789;53.216;5.624;2023-11-21T10:17:23;14.63;;;8.77;;
53875;SDS011;39789;53.216;5.624;2023-11-21T10:19:54;10.93;;;7.75;;
53875;SDS011;39789;53.216;5.624;2023-11-21T10:22:22;10.02;;;7.80;;
53875;SDS011;39789;53.216;5.624;2023-11-21T10:24:49;11.57;;;8.02;;
53875;SDS011;39789;53.216;5.624;2023-11-21T10:27:14;14.95;;;8.50;;
53875;SDS011;39789;53.216;5.624;2023-11-21T10:29:40;14.35;;;8.55;;
53875;SDS011;39789;53.216;5.624;2023-11-21T10:32:06;12.95;;;9.75;;
53875;SDS011;39789;53.216;5.624;2023-11-21T10:34:32;15.52;;;10.02;;
53875;SDS011;39789;53.216;5.624;2023-11-21T10:36:59;12.75;;;8.77;;
53875;SDS011;39789;53.216;5.624;2023-11-21T10:39:36;13.15;;;9.38;;
53875;SDS011;39789;53.216;5.624;2023-11-21T10:42:03;13.75;;;8.43;;
53875;SDS011;39789;53.216;5.624;2023-11-21T10:44:29;13.02;;;8.38;;
53875;SDS011;39789;53.216;5.624;2023-11-21T10:46:55;13.57;;;9.15;;
53875;SDS011;39789;53.216;5.624;2023-11-21T10:49:24;12.13;;;8.18;;
53875;SDS011;39789;53.216;5.624;2023-11-21T10:51:51;12.50;;;9.07;;
53875;SDS011;39789;53.216;5.624;2023-11-21T10:54:21;12.70;;;9.32;;
53875;SDS011;39789;53.216;5.624;2023-11-21T10:56:49;13.10;;;9.13;;
53875;SDS011;39789;53.216;5.624;2023-11-21T10:59:18;13.73;;;9.45;;
53875;SDS011;39789;53.216;5.624;2023-11-21T11:01:48;12.90;;;9.30;;
53875;SDS011;39789;53.216;5.624;2023-11-21T11:04:18;15.30;;;9.95;;
53875;SDS011;39789;53.216;5.624;2023-11-21T11:06:45;13.55;;;9.73;;
53875;SDS011;39789;53.216;5.624;2023-11-21T11:09:19;13.20;;;8.98;;
53875;SDS011;39789;53.216;5.624;2023-11-21T11:11:46;13.32;;;8.80;;
53875;SDS011;39789;53.216;5.624;2023-11-21T11:14:12;12.65;;;8.05;;
53875;SDS011;39789;53.216;5.624;2023-11-21T11:16:39;13.10;;;8.32;;
53875;SDS011;39789;53.216;5.624;2023-11-21T11:19:11;12.55;;;8.73;;
53875;SDS011;39789;53.216;5.624;2023-11-21T11:22:15;13.32;;;8.65;;
53875;SDS011;39789;53.216;5.624;2023-11-21T11:33:47;12.25;;;8.13;;
53875;SDS011;39789;53.216;5.624;2023-11-21T11:36:29;12.25;;;8.13;;
53875;SDS011;39789;53.216;5.624;2023-11-21T11:39:02;10.43;;;7.30;;
53875;SDS011;39789;53.216;5.624;2023-11-21T11:41:30;11.38;;;7.93;;
53875;SDS011;39789;53.216;5.624;2023-11-21T11:44:02;11.48;;;7.93;;
53875;SDS011;39789;53.216;5.624;2023-11-21T11:46:44;11.13;;;7.72;;
53875;SDS011;39789;53.216;5.624;2023-11-21T11:49:23;10.38;;;7.70;;
53875;SDS011;39789;53.216;5.624;2023-11-21T11:54:58;10.20;;;7.65;;
53875;SDS011;39789;53.216;5.624;2023-11-21T11:57:25;10.65;;;8.13;;
53875;SDS011;39789;53.216;5.624;2023-11-21T12:02:57;10.80;;;7.68;;
53875;SDS011;39789;53.216;5.624;2023-11-21T12:05:24;9.80;;;7.03;;
53875;SDS011;39789;53.216;5.624;2023-11-21T12:07:56;10.38;;;6.93;;
53875;SDS011;39789;53.216;5.624;2023-11-21T12:10:29;10.63;;;6.38;;
53875;SDS011;39789;53.216;5.624;2023-11-21T12:15:35;8.15;;;5.53;;
53875;SDS011;39789;53.216;5.624;2023-11-21T12:18:02;10.10;;;6.32;;
53875;SDS011;39789;53.216;5.624;2023-11-21T12:20:28;8.98;;;5.80;;
53875;SDS011;39789;53.216;5.624;2023-11-21T12:22:59;6.97;;;5.35;;
53875;SDS011;39789;53.216;5.624;2023-11-21T12:25:26;8.57;;;6.05;;
53875;SDS011;39789;53.216;5.624;2023-11-21T12:27:54;7.20;;;4.85;;
53875;SDS011;39789;53.216;5.624;2023-11-21T12:30:25;8.07;;;5.78;;
53875;SDS011;39789;53.216;5.624;2023-11-21T12:32:54;8.32;;;5.78;;
53875;SDS011;39789;53.216;5.624;2023-11-21T12:35:26;7.38;;;5.22;;
53875;SDS011;39789;53.216;5.624;2023-11-21T12:37:58;9.85;;;5.47;;
53875;SDS011;39789;53.216;5.624;2023-11-21T12:40:25;7.25;;;5.47;;
53875;SDS011;39789;53.216;5.624;2023-11-21T12:42:57;7.53;;;5.35;;
53875;SDS011;39789;53.216;5.624;2023-11-21T12:45:25;9.52;;;5.78;;
53875;SDS011;39789;53.216;5.624;2023-11-21T12:47:59;6.60;;;4.97;;
53875;SDS011;39789;53.216;5.624;2023-11-21T12:50:27;6.63;;;5.00;;
53875;SDS011;39789;53.216;5.624;2023-11-21T12:53:03;10.32;;;5.32;;
53875;SDS011;39789;53.216;5.624;2023-11-21T12:55:33;9.45;;;5.97;;
53875;SDS011;39789;53.216;5.624;2023-11-21T12:58:02;9.13;;;6.38;;
53875;SDS011;39789;53.216;5.624;2023-11-21T13:00:36;8.93;;;5.90;;
53875;SDS011;39789;53.216;5.624;2023-11-21T13:03:08;7.63;;;5.85;;
53875;SDS011;39789;53.216;5.624;2023-11-21T13:05:37;9.55;;;7.05;;
53875;SDS011;39789;53.216;5.624;2023-11-21T13:08:04;8.23;;;6.45;;
53875;SDS011;39789;53.216;5.624;2023-11-21T13:10:33;8.30;;;6.13;;
53875;SDS011;39789;53.216;5.624;2023-11-21T13:13:02;9.13;;;6.97;;
53875;SDS011;39789;53.216;5.624;2023-11-21T13:18:06;9.30;;;5.90;;
53875;SDS011;39789;53.216;5.624;2023-11-21T13:20:32;8.35;;;5.63;;
53875;SDS011;39789;53.216;5.624;2023-11-21T13:22:58;8.13;;;6.03;;
53875;SDS011;39789;53.216;5.624;2023-11-21T13:25:28;9.23;;;6.47;;
53875;SDS011;39789;53.216;5.624;2023-11-21T13:27:57;9.88;;;6.10;;
53875;SDS011;39789;53.216;5.624;2023-11-21T13:30:27;8.90;;;6.15;;
53875;SDS011;39789;53.216;5.624;2023-11-21T13:32:58;9.60;;;6.70;;
53875;SDS011;39789;53.216;5.624;2023-11-21T13:35:30;8.65;;;6.05;;
53875;SDS011;39789;53.216;5.624;2023-11-21T13:38:13;13.75;;;6.78;;
53875;SDS011;39789;53.216;5.624;2023-11-21T13:40:42;8.35;;;5.47;;
53875;SDS011;39789;53.216;5.624;2023-11-21T13:43:17;9.25;;;6.15;;
53875;SDS011;39789;53.216;5.624;2023-11-21T13:45:45;10.32;;;6.72;;
53875;SDS011;39789;53.216;5.624;2023-11-21T13:48:12;11.80;;;7.18;;
53875;SDS011;39789;53.216;5.624;2023-11-21T13:50:50;11.80;;;8.07;;
53875;SDS011;39789;53.216;5.624;2023-11-21T13:53:32;10.23;;;7.32;;
53875;SDS011;39789;53.216;5.624;2023-11-21T13:56:01;10.32;;;7.07;;
53875;SDS011;39789;53.216;5.624;2023-11-21T13:58:27;11.45;;;6.28;;
53875;SDS011;39789;53.216;5.624;2023-11-21T14:01:11;9.18;;;6.65;;
53875;SDS011;39789;53.216;5.624;2023-11-21T14:03:56;10.20;;;7.50;;
53875;SDS011;39789;53.216;5.624;2023-11-21T14:06:27;10.95;;;7.40;;
53875;SDS011;39789;53.216;5.624;2023-11-21T14:08:59;10.52;;;7.43;;
53875;SDS011;39789;53.216;5.624;2023-11-21T14:11:30;12.60;;;8.10;;
53875;SDS011;39789;53.216;5.624;2023-11-21T14:13:56;12.40;;;7.35;;
53875;SDS011;39789;53.216;5.624;2023-11-21T14:16:24;12.23;;;7.32;;
53875;SDS011;39789;53.216;5.624;2023-11-21T14:18:50;12.13;;;6.90;;
53875;SDS011;39789;53.216;5.624;2023-11-21T14:21:22;9.65;;;6.85;;
53875;SDS011;39789;53.216;5.624;2023-11-21T14:23:48;11.25;;;7.85;;
53875;SDS011;39789;53.216;5.624;2023-11-21T14:26:14;11.95;;;7.10;;
53875;SDS011;39789;53.216;5.624;2023-11-21T14:28:40;10.90;;;7.82;;
53875;SDS011;39789;53.216;5.624;2023-11-21T14:31:07;12.18;;;7.75;;
53875;SDS011;39789;53.216;5.624;2023-11-21T14:33:38;14.32;;;7.75;;
53875;SDS011;39789;53.216;5.624;2023-11-21T14:36:04;11.27;;;7.07;;
53875;SDS011;39789;53.216;5.624;2023-11-21T14:38:30;12.23;;;7.70;;
53875;SDS011;39789;53.216;5.624;2023-11-21T14:40:55;10.88;;;7.53;;
53875;SDS011;39789;53.216;5.624;2023-11-21T14:43:22;11.60;;;7.65;;
53875;SDS011;39789;53.216;5.624;2023-11-21T14:45:47;10.43;;;6.38;;
53875;SDS011;39789;53.216;5.624;2023-11-21T14:48:14;10.25;;;5.85;;
53875;SDS011;39789;53.216;5.624;2023-11-21T14:50:54;7.65;;;5.07;;
53875;SDS011;39789;53.216;5.624;2023-11-21T14:53:28;7.00;;;4.68;;
53875;SDS011;39789;53.216;5.624;2023-11-21T14:56:18;7.05;;;5.38;;